createdAt,value
2023-01-04T00:01:26.559Z,101010.28
2023-01-04T00:03:53.654Z,101021.84
2023-01-04T00:06:21.338Z,101029.13
2023-01-04T00:08:48.715Z,101036.13
2023-01-04T00:11:19.318Z,101028.59
2023-01-04T00:13:48.454Z,101029.69
2023-01-04T00:16:19.616Z,101031.66
2023-01-04T00:18:47.266Z,101032.75
2023-01-04T00:21:17.802Z,101030.53
2023-01-04T00:23:48.082Z,101025.50
2023-01-04T00:26:19.302Z,101032.75
2023-01-04T00:28:53.731Z,101027.75
2023-01-04T00:31:23.128Z,101024.38
2023-01-04T00:33:57.988Z,101021.03
2023-01-04T00:36:26.128Z,101021.19
2023-01-04T00:39:09.619Z,101020.47
2023-01-04T00:42:01.739Z,101012.63
2023-01-04T00:44:30.076Z,101016.28
2023-01-04T00:46:57.650Z,101023.53
2023-01-04T00:49:25.551Z,101005.13
2023-01-04T00:51:52.510Z,101006.06
2023-01-04T00:54:20.613Z,101007.88
2023-01-04T00:56:48.258Z,101002.72
2023-01-04T00:59:19.201Z,101002.03
2023-01-04T01:01:47.371Z,101005.66
2023-01-04T01:04:18.207Z,101002.28
2023-01-04T01:06:45.453Z,100999.78
2023-01-04T01:09:12.907Z,101000.06
2023-01-04T01:11:40.187Z,101005.38
2023-01-04T01:14:11.896Z,100999.50
2023-01-04T01:16:54.493Z,100997.00
2023-01-04T01:19:23.681Z,101001.59
2023-01-04T01:21:50.607Z,101000.06
2023-01-04T01:24:19.624Z,101001.19
2023-01-04T01:26:46.705Z,100997.78
2023-01-04T01:29:13.713Z,100995.16
2023-01-04T01:31:41.335Z,100991.81
2023-01-04T01:34:08.659Z,100996.28
2023-01-04T01:36:36.399Z,100999.75
2023-01-04T01:39:04.613Z,100996.41
2023-01-04T01:41:35.068Z,101003.41
2023-01-04T01:44:06.877Z,101000.88
2023-01-04T01:46:38.821Z,101005.34
2023-01-04T01:49:37.262Z,100995.00
2023-01-04T01:52:11.231Z,100997.66
2023-01-04T01:54:47.028Z,100988.03
2023-01-04T01:57:19.622Z,100985.38
2023-01-04T01:59:51.148Z,100979.38
2023-01-04T02:02:18.453Z,100986.63
2023-01-04T02:04:50.491Z,100991.06
2023-01-04T02:07:22.473Z,100978.78
2023-01-04T02:09:50.889Z,100978.78
2023-01-04T02:12:18.429Z,100976.28
2023-01-04T02:14:49.190Z,100976.28
2023-01-04T02:18:07.021Z,100963.88
2023-01-04T02:21:11.577Z,100957.72
2023-01-04T02:24:18.273Z,100947.28
2023-01-04T02:27:16.996Z,100941.13
2023-01-04T02:30:25.942Z,100947.41
2023-01-04T02:33:27.109Z,100943.06
2023-01-04T02:36:33.387Z,100953.94
2023-01-04T02:39:35.652Z,100940.00
2023-01-04T02:42:49.817Z,100937.59
2023-01-04T02:45:22.905Z,100925.47
2023-01-04T02:48:08.702Z,100922.97
2023-01-04T02:50:52.934Z,100919.59
2023-01-04T02:53:41.694Z,100920.72
2023-01-04T02:56:11.363Z,100918.19
2023-01-04T02:58:49.943Z,100917.47
2023-01-04T03:01:44.405Z,100930.03
2023-01-04T03:05:03.287Z,100922.34
2023-01-04T03:07:50.367Z,100935.72
2023-01-04T03:10:40.145Z,100942.13
2023-01-04T03:13:21.373Z,100941.44
2023-01-04T03:15:59.133Z,100931.09
2023-01-04T03:18:41.711Z,100925.09
2023-01-04T03:21:11.209Z,100925.25
2023-01-04T03:23:57.949Z,100920.94
2023-01-04T03:26:51.189Z,100921.19
2023-01-04T03:29:50.357Z,100922.31
2023-01-04T03:33:06.383Z,100914.59
2023-01-04T03:35:59.974Z,100917.53
2023-01-04T03:38:58.105Z,100918.50
2023-01-04T03:41:50.993Z,100912.50
2023-01-04T03:44:50.517Z,100912.78
2023-01-04T03:47:55.987Z,100914.59
2023-01-04T03:50:28.994Z,100912.19
2023-01-04T03:52:59.171Z,100916.66
2023-01-04T03:55:29.310Z,100909.69
2023-01-04T03:57:58.022Z,100900.91
2023-01-04T04:00:25.203Z,100899.38
2023-01-04T04:02:52.153Z,100897.69
2023-01-04T04:05:43.021Z,100894.31
2023-01-04T04:08:26.601Z,100880.41
2023-01-04T04:10:55.186Z,100882.34
2023-01-04T04:13:22.372Z,100872.69
2023-01-04T04:15:49.392Z,100871.03
2023-01-04T04:18:16.357Z,100873.69
2023-01-04T04:20:43.318Z,100870.91
2023-01-04T04:23:10.226Z,100864.75
2023-01-04T04:25:37.129Z,100859.47
2023-01-04T04:28:06.032Z,100868.28
2023-01-04T04:30:32.965Z,100867.28
2023-01-04T04:32:59.896Z,100875.09
2023-01-04T04:35:26.880Z,100862.84
2023-01-04T04:37:53.770Z,100862.84
2023-01-04T04:40:38.997Z,100866.31
2023-01-04T04:43:08.720Z,100857.53
2023-01-04T04:45:35.675Z,100852.25
2023-01-04T04:48:02.789Z,100853.91
2023-01-04T04:50:29.714Z,100838.03
2023-01-04T04:52:56.639Z,100837.88
2023-01-04T04:55:23.794Z,100832.44
2023-01-04T04:57:51.025Z,100834.97
2023-01-04T05:00:17.995Z,100839.16
2023-01-04T05:02:45.033Z,100843.47
2023-01-04T05:05:12.033Z,100834.53
2023-01-04T05:07:38.924Z,100829.81
2023-01-04T05:10:06.225Z,100828.00
2023-01-04T05:12:57.463Z,100832.19
2023-01-04T05:15:25.598Z,100821.47
2023-01-04T05:17:52.479Z,100816.03
2023-01-04T05:20:19.451Z,100822.88
2023-01-04T05:22:46.396Z,100821.88
2023-01-04T05:25:13.289Z,100826.19
2023-01-04T05:27:40.806Z,100827.06
2023-01-04T05:30:28.574Z,100825.25
2023-01-04T05:32:55.627Z,100822.47
2023-01-04T05:35:22.584Z,100820.50
2023-01-04T05:37:49.584Z,100821.34
2023-01-04T05:40:16.776Z,100816.88
2023-01-04T05:42:44.238Z,100816.03
2023-01-04T05:45:11.449Z,100822.06
2023-01-04T05:47:38.401Z,100819.41
2023-01-04T05:50:06.137Z,100812.41
2023-01-04T05:52:33.079Z,100814.09
2023-01-04T05:55:00.281Z,100821.19
2023-01-04T05:57:27.371Z,100815.78
2023-01-04T05:59:54.321Z,100802.53
2023-01-04T06:02:25.927Z,100809.66
2023-01-04T06:04:58.418Z,100800.84
2023-01-04T06:07:27.711Z,100802.66
2023-01-04T06:09:54.771Z,100794.69
2023-01-04T06:12:21.841Z,100796.50
2023-01-04T06:14:48.774Z,100792.91
2023-01-04T06:17:15.781Z,100798.22
2023-01-04T06:19:42.739Z,100793.75
2023-01-04T06:22:10.067Z,100806.84
2023-01-04T06:24:37.027Z,100793.59
2023-01-04T06:27:04.362Z,100792.63
2023-01-04T06:29:31.376Z,100782.03
2023-01-04T06:31:58.405Z,100773.09
2023-01-04T06:34:30.487Z,100770.44
2023-01-04T06:36:58.227Z,100783.69
2023-01-04T06:39:25.162Z,100767.78
2023-01-04T06:41:52.304Z,100780.22
2023-01-04T06:44:19.432Z,100775.75
2023-01-04T06:46:46.376Z,100776.72
2023-01-04T06:49:14.289Z,100778.41
2023-01-04T06:51:41.392Z,100777.41
2023-01-04T06:54:11.739Z,100774.75
2023-01-04T06:56:40.594Z,100775.59
2023-01-04T06:59:09.457Z,100770.19
2023-01-04T07:01:36.661Z,100781.47
2023-01-04T07:04:03.889Z,100781.47
2023-01-04T07:06:30.850Z,100777.00
2023-01-04T07:08:57.762Z,100772.53
2023-01-04T07:11:24.682Z,100775.19
2023-01-04T07:13:52.726Z,100775.19
2023-01-04T07:16:20.411Z,100764.59
2023-01-04T07:18:47.637Z,100768.91
2023-01-04T07:21:14.648Z,100761.94
2023-01-04T07:23:41.567Z,100759.28
2023-01-04T07:26:08.549Z,100762.63
2023-01-04T07:28:53.853Z,100764.28
2023-01-04T07:31:20.889Z,100752.75
2023-01-04T07:33:50.717Z,100753.56
2023-01-04T07:36:17.813Z,100738.38
2023-01-04T07:38:44.827Z,100739.06
2023-01-04T07:41:11.720Z,100742.41
2023-01-04T07:43:38.646Z,100739.66
2023-01-04T07:46:05.669Z,100740.19
2023-01-04T07:48:32.684Z,100744.38
2023-01-04T07:50:59.617Z,100740.75
2023-01-04T07:53:26.608Z,100744.91
2023-01-04T07:55:59.941Z,100743.81
2023-01-04T07:58:32.731Z,100740.88
2023-01-04T08:01:15.151Z,100746.88
2023-01-04T08:03:42.900Z,100744.94
2023-01-04T08:06:12.551Z,100740.31
2023-01-04T08:08:39.743Z,100719.78
2023-01-04T08:11:11.154Z,100699.13
2023-01-04T08:13:38.365Z,100693.53
2023-01-04T08:16:05.633Z,100693.25
2023-01-04T08:18:32.739Z,100697.41
2023-01-04T08:21:08.251Z,100691.00
2023-01-04T08:23:36.902Z,100687.22
2023-01-04T08:26:11.402Z,100689.56
2023-01-04T08:28:38.520Z,100699.22
2023-01-04T08:31:14.584Z,100707.88
2023-01-04T08:33:42.853Z,100703.25
2023-01-04T08:36:29.048Z,100708.28
2023-01-04T08:39:06.069Z,100704.63
2023-01-04T08:42:02.115Z,100704.31
2023-01-04T08:44:34.450Z,100705.03
2023-01-04T08:47:01.606Z,100712.69
2023-01-04T08:49:28.663Z,100709.06
2023-01-04T08:51:55.623Z,100704.41
2023-01-04T08:54:25.214Z,100706.66
2023-01-04T08:56:52.153Z,100715.28
2023-01-04T08:59:19.307Z,100701.59
2023-01-04T09:01:46.932Z,100702.25
2023-01-04T09:04:14.263Z,100694.03
2023-01-04T09:06:41.352Z,100696.38
2023-01-04T09:09:08.346Z,100693.59
2023-01-04T09:11:37.744Z,100706.41
2023-01-04T09:14:08.413Z,100688.53
2023-01-04T09:16:38.007Z,100688.22
2023-01-04T09:19:05.734Z,100693.22
2023-01-04T09:21:32.782Z,100690.97
2023-01-04T09:23:59.845Z,100691.66
2023-01-04T09:26:27.003Z,100679.75
2023-01-04T09:28:55.869Z,100676.81
2023-01-04T09:31:28.542Z,100675.50
2023-01-04T09:34:15.147Z,100673.22
2023-01-04T09:36:44.660Z,100673.78
2023-01-04T09:39:20.845Z,100675.97
2023-01-04T09:41:59.223Z,100686.97
2023-01-04T09:45:03.207Z,100678.41
2023-01-04T09:47:42.404Z,100687.72
2023-01-04T09:50:31.754Z,100665.72
2023-01-04T09:53:16.634Z,100668.91
2023-01-04T09:55:49.530Z,100679.91
2023-01-04T09:58:32.954Z,100673.31
2023-01-04T10:01:05.156Z,100657.72
2023-01-04T10:03:39.321Z,100657.44
2023-01-04T10:06:12.290Z,100649.28
2023-01-04T10:08:44.304Z,100655.16
2023-01-04T10:11:46.441Z,100668.78
2023-01-04T10:14:46.244Z,100642.75
2023-01-04T10:18:33.926Z,100657.38
2023-01-04T10:21:20.787Z,100657.25
2023-01-04T10:23:38.004Z,100658.59
2023-01-04T10:26:18.590Z,100651.97
2023-01-04T10:29:26.971Z,100663.94
2023-01-04T10:32:11.607Z,100643.19
2023-01-04T10:34:45.976Z,100641.06
2023-01-04T10:37:23.576Z,100639.09
2023-01-04T10:39:55.046Z,100639.59
2023-01-04T10:42:37.745Z,100636.78
2023-01-04T10:45:16.938Z,100648.75
2023-01-04T10:48:03.315Z,100637.00
2023-01-04T10:50:38.937Z,100631.19
2023-01-04T10:53:51.347Z,100608.91
2023-01-04T10:56:37.292Z,100617.56
2023-01-04T10:59:35.148Z,100604.94
2023-01-04T11:02:39.801Z,100611.75
2023-01-04T11:05:45.158Z,100611.63
2023-01-04T11:08:30.535Z,100605.31
2023-01-04T11:11:17.852Z,100608.63
2023-01-04T11:13:44.835Z,100597.81
2023-01-04T11:16:11.889Z,100612.81
2023-01-04T11:18:42.565Z,100607.34
2023-01-04T11:21:13.068Z,100618.00
2023-01-04T11:23:40.137Z,100618.00
2023-01-04T11:26:19.796Z,100610.69
2023-01-04T11:29:00.266Z,100600.88
2023-01-04T11:31:43.553Z,100590.06
2023-01-04T11:34:10.544Z,100598.88
2023-01-04T11:36:42.479Z,100603.22
2023-01-04T11:39:23.938Z,100612.88
2023-01-04T11:42:05.767Z,100623.66
2023-01-04T11:44:35.186Z,100613.69
2023-01-04T11:47:33.000Z,100614.53
2023-01-04T11:50:00.235Z,100602.88
2023-01-04T11:52:37.646Z,100598.56
2023-01-04T11:55:29.699Z,100590.25
2023-01-04T11:58:15.030Z,100577.75
2023-01-04T12:00:57.205Z,100588.41
2023-01-04T12:03:38.947Z,100563.50
2023-01-04T12:06:22.665Z,100563.50
2023-01-04T12:08:49.783Z,100565.97
2023-01-04T12:11:39.723Z,100558.81
2023-01-04T12:14:27.593Z,100552.50
2023-01-04T12:17:23.124Z,100551.50
2023-01-04T12:19:55.206Z,100550.50
2023-01-04T12:22:30.774Z,100546.69
2023-01-04T12:25:00.978Z,100533.38
2023-01-04T12:27:28.775Z,100529.72
2023-01-04T12:30:01.989Z,100523.22
2023-01-04T12:32:28.982Z,100515.94
2023-01-04T12:34:56.378Z,100523.75
2023-01-04T12:37:40.483Z,100521.91
2023-01-04T12:40:44.781Z,100516.41
2023-01-04T12:43:17.389Z,100510.94
2023-01-04T12:45:48.442Z,100506.28
2023-01-04T12:48:46.063Z,100507.78
2023-01-04T12:51:33.672Z,100499.78
2023-01-04T12:54:05.729Z,100508.28
2023-01-04T12:57:09.874Z,100500.97
2023-01-04T13:00:00.526Z,100489.97
2023-01-04T13:02:34.087Z,100489.81
2023-01-04T13:05:55.560Z,100486.81
2023-01-04T13:08:15.042Z,100481.31
2023-01-04T13:10:51.509Z,100487.16
2023-01-04T13:14:00.015Z,100494.97
2023-01-04T13:17:13.106Z,100475.97
2023-01-04T13:19:40.695Z,100476.50
2023-01-04T13:22:29.713Z,100474.31
2023-01-04T13:24:59.901Z,100466.00
2023-01-04T13:27:27.880Z,100454.97
2023-01-04T13:29:55.638Z,100467.97
2023-01-04T13:32:28.885Z,100460.66
2023-01-04T13:35:08.355Z,100458.63
2023-01-04T13:37:49.517Z,100461.97
2023-01-04T13:40:32.350Z,100455.28
2023-01-04T13:43:44.413Z,100450.66
2023-01-04T13:46:22.686Z,100441.00
2023-01-04T13:48:53.818Z,100434.66
2023-01-04T13:51:30.682Z,100436.31
2023-01-04T13:54:06.432Z,100430.16
2023-01-04T13:56:34.783Z,100429.97
2023-01-04T13:59:01.961Z,100419.97
2023-01-04T14:01:41.156Z,100419.97
2023-01-04T14:04:26.212Z,100425.16
2023-01-04T14:06:57.708Z,100420.81
2023-01-04T14:09:29.723Z,100419.97
2023-01-04T14:12:06.233Z,100433.28
2023-01-04T14:14:38.691Z,100432.66
2023-01-04T14:17:18.489Z,100418.66
2023-01-04T14:20:00.284Z,100414.50
2023-01-04T14:22:32.547Z,100408.69
2023-01-04T14:25:22.685Z,100411.22
2023-01-04T14:27:52.049Z,100404.38
2023-01-04T14:30:18.863Z,100401.06
2023-01-04T14:33:18.839Z,100404.72
2023-01-04T14:35:48.862Z,100389.06
2023-01-04T14:38:19.236Z,100393.75
2023-01-04T14:40:46.652Z,100400.91
2023-01-04T14:43:42.702Z,100395.56
2023-01-04T14:46:10.439Z,100405.41
2023-01-04T14:48:37.393Z,100395.75
2023-01-04T14:51:05.257Z,100397.41
2023-01-04T14:53:32.289Z,100383.09
2023-01-04T14:55:59.292Z,100380.25
2023-01-04T14:58:26.208Z,100387.41
2023-01-04T15:00:53.099Z,100389.91
2023-01-04T15:03:20.154Z,100382.75
2023-01-04T15:05:47.471Z,100392.41
2023-01-04T15:08:14.399Z,100394.06
2023-01-04T15:10:41.327Z,100379.75
2023-01-04T15:13:08.294Z,100377.06
2023-01-04T15:15:35.368Z,100369.91
2023-01-04T15:18:02.547Z,100383.06
2023-01-04T15:20:29.546Z,100373.22
2023-01-04T15:22:56.634Z,100372.06
2023-01-04T15:25:23.711Z,100368.41
2023-01-04T15:27:50.882Z,100374.56
2023-01-04T15:30:17.816Z,100359.06
2023-01-04T15:32:44.850Z,100366.72
2023-01-04T15:35:16.034Z,100362.03
2023-01-04T15:37:44.596Z,100369.88
2023-01-04T15:40:17.125Z,100371.34
2023-01-04T15:43:00.322Z,100366.69
2023-01-04T15:45:29.406Z,100361.84
2023-01-04T15:48:03.189Z,100352.00
2023-01-04T15:50:34.037Z,100350.00
2023-01-04T15:53:01.121Z,100356.34
2023-01-04T15:55:36.038Z,100346.31
2023-01-04T15:58:05.772Z,100347.16
2023-01-04T16:00:32.940Z,100346.00
2023-01-04T16:03:00.031Z,100340.66
2023-01-04T16:05:27.023Z,100341.31
2023-01-04T16:07:54.014Z,100329.66
2023-01-04T16:10:21.184Z,100342.78
2023-01-04T16:12:56.272Z,100342.78
2023-01-04T16:15:24.063Z,100330.47
2023-01-04T16:17:51.164Z,100345.63
2023-01-04T16:20:18.880Z,100351.97
2023-01-04T16:22:46.027Z,100337.63
2023-01-04T16:25:14.142Z,100337.63
2023-01-04T16:27:41.923Z,100343.97
2023-01-04T16:30:13.709Z,100338.00
2023-01-04T16:32:43.208Z,100328.34
2023-01-04T16:35:11.030Z,100323.16
2023-01-04T16:37:38.122Z,100327.84
2023-01-04T16:40:07.840Z,100326.84
2023-01-04T16:42:37.530Z,100328.84
2023-01-04T16:45:05.727Z,100337.03
2023-01-04T16:47:41.754Z,100345.03
2023-01-04T16:50:10.965Z,100330.03
2023-01-04T16:52:39.610Z,100332.53
2023-01-04T16:55:07.976Z,100339.03
2023-01-04T16:57:34.943Z,100331.88
2023-01-04T17:00:02.198Z,100321.38
2023-01-04T17:02:29.201Z,100329.22
2023-01-04T17:04:59.420Z,100325.69
2023-01-04T17:07:32.218Z,100328.34
2023-01-04T17:10:02.134Z,100351.50
2023-01-04T17:12:47.200Z,100330.19
2023-01-04T17:15:41.918Z,100331.03
2023-01-04T17:18:01.883Z,100335.53
2023-01-04T17:20:28.811Z,100336.34
2023-01-04T17:22:55.723Z,100342.69
2023-01-04T17:25:22.660Z,100351.50
2023-01-04T17:27:49.600Z,100364.69
2023-01-04T17:30:16.585Z,100344.03
2023-01-04T17:32:43.491Z,100344.19
2023-01-04T17:35:10.394Z,100351.19
2023-01-04T17:37:37.310Z,100346.69
2023-01-04T17:40:04.698Z,100337.03
2023-01-04T17:42:33.378Z,100337.03
2023-01-04T17:45:00.291Z,100330.03
2023-01-04T17:47:27.652Z,100340.72
2023-01-04T17:49:54.657Z,100322.06
2023-01-04T17:52:29.025Z,100326.56
2023-01-04T17:54:58.029Z,100331.03
2023-01-04T17:57:25.047Z,100316.72
2023-01-04T17:59:52.031Z,100323.22
2023-01-04T18:02:18.995Z,100319.53
2023-01-04T18:04:46.013Z,100331.38
2023-01-04T18:09:44.809Z,100333.69
2023-01-04T18:12:11.711Z,100330.38
2023-01-04T18:14:38.760Z,100324.22
2023-01-04T18:17:06.044Z,100319.91
2023-01-04T18:19:33.124Z,100320.72
2023-01-04T18:22:00.203Z,100324.41
2023-01-04T18:24:37.482Z,100335.06
2023-01-04T18:27:23.840Z,100316.41
2023-01-04T18:29:54.167Z,100328.06
2023-01-04T18:32:22.984Z,100329.91
2023-01-04T18:34:50.020Z,100342.41
2023-01-04T18:37:18.464Z,100337.91
2023-01-04T18:39:47.017Z,100337.06
2023-01-04T18:42:14.074Z,100337.06
2023-01-04T18:44:47.461Z,100340.72
2023-01-04T18:47:20.840Z,100341.72
2023-01-04T18:49:49.787Z,100354.22
2023-01-04T18:52:18.156Z,100353.38
2023-01-04T18:54:47.588Z,100369.19
2023-01-04T18:57:14.540Z,100357.72
2023-01-04T18:59:41.601Z,100351.72
2023-01-04T19:02:15.923Z,100342.72
2023-01-04T19:04:43.036Z,100350.06
2023-01-04T19:07:09.992Z,100353.38
2023-01-04T19:09:37.079Z,100362.38
2023-01-04T19:12:04.189Z,100338.59
2023-01-04T19:14:31.134Z,100344.75
2023-01-04T19:16:58.089Z,100348.41
2023-01-04T19:19:25.147Z,100333.41
2023-01-04T19:21:52.138Z,100330.09
2023-01-04T19:24:19.066Z,100338.09
2023-01-04T19:26:45.977Z,100325.78
2023-01-04T19:29:13.073Z,100317.78
2023-01-04T19:31:40.032Z,100312.47
2023-01-04T19:34:10.012Z,100303.63
2023-01-04T19:36:37.105Z,100305.47
2023-01-04T19:39:07.740Z,100307.31
2023-01-04T19:41:37.449Z,100306.13
2023-01-04T19:44:08.328Z,100313.28
2023-01-04T19:46:38.049Z,100316.97
2023-01-04T19:49:10.895Z,100323.13
2023-01-04T19:51:44.315Z,100318.63
2023-01-04T19:54:11.990Z,100317.59
2023-01-04T19:56:39.703Z,100320.94
2023-01-04T19:59:06.836Z,100311.94
2023-01-04T20:01:34.009Z,100319.75
2023-01-04T20:04:01.244Z,100334.56
2023-01-04T20:06:28.286Z,100344.06
2023-01-04T20:08:55.201Z,100326.06
2023-01-04T20:11:22.133Z,100329.38
2023-01-04T20:13:49.063Z,100338.03
2023-01-04T20:16:16.142Z,100338.03
2023-01-04T20:18:43.356Z,100324.53
2023-01-04T20:21:13.652Z,100314.72
2023-01-04T20:23:41.170Z,100312.69
2023-01-04T20:26:15.870Z,100316.03
2023-01-04T20:28:45.849Z,100324.03
2023-01-04T20:31:16.859Z,100316.84
2023-01-04T20:33:44.398Z,100320.16
2023-01-04T20:36:18.632Z,100326.31
2023-01-04T20:38:47.206Z,100327.97
2023-01-04T20:41:20.548Z,100318.97
2023-01-04T20:43:48.317Z,100332.97
2023-01-04T20:46:39.550Z,100341.63
2023-01-04T20:49:08.358Z,100331.63
2023-01-04T20:51:35.266Z,100334.09
2023-01-04T20:54:02.219Z,100340.09
2023-01-04T20:56:32.334Z,100339.94
2023-01-04T20:58:59.319Z,100340.56
2023-01-04T21:01:26.448Z,100342.22
2023-01-04T21:03:53.687Z,100343.06
2023-01-04T21:06:24.958Z,100334.91
2023-01-04T21:08:54.735Z,100335.72
2023-01-04T21:11:22.613Z,100338.22
2023-01-04T21:13:51.372Z,100332.53
2023-01-04T21:16:18.473Z,100335.88
2023-01-04T21:18:45.696Z,100328.50
2023-01-04T21:21:17.480Z,100330.16
2023-01-04T21:23:57.743Z,100325.50
2023-01-04T21:26:25.141Z,100317.31
2023-01-04T21:28:52.253Z,100312.63
2023-01-04T21:31:26.194Z,100306.09
2023-01-04T21:33:59.687Z,100308.78
2023-01-04T21:36:36.553Z,100289.94
2023-01-04T21:39:05.664Z,100279.94
2023-01-04T21:41:32.675Z,100288.56
2023-01-04T21:43:59.763Z,100285.91
2023-01-04T21:46:29.478Z,100278.72
2023-01-04T21:49:01.387Z,100269.56
2023-01-04T21:51:38.508Z,100275.72
2023-01-04T21:54:10.042Z,100281.69
2023-01-04T21:56:39.732Z,100271.66
2023-01-04T21:59:06.960Z,100274.00
2023-01-04T22:01:35.337Z,100269.13
2023-01-04T22:04:04.259Z,100274.94
2023-01-04T22:09:16.839Z,100272.56
2023-01-04T22:11:44.069Z,100276.72
2023-01-04T22:14:11.080Z,100262.34
2023-01-04T22:16:43.574Z,100244.34
2023-01-04T22:19:17.126Z,100263.84
2023-01-04T22:21:44.272Z,100278.84
2023-01-04T22:24:13.369Z,100260.81
2023-01-04T22:26:41.605Z,100261.44
2023-01-04T22:29:09.979Z,100265.81
2023-01-04T22:31:37.422Z,100250.63
2023-01-04T22:34:04.370Z,100267.47
2023-01-04T22:36:31.329Z,100269.09
2023-01-04T22:38:58.587Z,100263.78
2023-01-04T22:41:28.345Z,100255.75
2023-01-04T22:44:04.887Z,100257.41
2023-01-04T22:46:36.627Z,100255.56
2023-01-04T22:49:04.356Z,100245.72
2023-01-04T22:51:31.933Z,100248.41
2023-01-04T22:54:02.038Z,100237.09
2023-01-04T22:56:29.764Z,100231.56
2023-01-04T22:58:58.137Z,100233.41
2023-01-04T23:01:31.620Z,100233.78
2023-01-04T23:04:00.887Z,100239.94
2023-01-04T23:06:30.068Z,100245.28
2023-01-04T23:09:01.747Z,100235.78
2023-01-04T23:11:30.868Z,100220.59
2023-01-04T23:13:58.442Z,100233.28
2023-01-04T23:16:31.915Z,100229.81
2023-01-04T23:19:04.990Z,100230.44
2023-01-04T23:21:33.238Z,100220.97
2023-01-04T23:24:01.106Z,100220.13
2023-01-04T23:26:30.359Z,100225.47
2023-01-04T23:28:58.617Z,100225.28
2023-01-04T23:31:29.964Z,100224.81
2023-01-04T23:34:02.261Z,100226.31
2023-01-04T23:36:36.658Z,100224.47
2023-01-04T23:39:08.889Z,100217.47
2023-01-04T23:41:45.545Z,100203.13
2023-01-04T23:44:20.242Z,100211.13
2023-01-04T23:46:59.703Z,100200.25
2023-01-04T23:49:29.145Z,100203.75
2023-01-04T23:51:56.888Z,100208.25
2023-01-04T23:54:24.357Z,100206.41
2023-01-04T23:56:51.861Z,100205.41
2023-01-04T23:59:19.493Z,100198.41
